»·PEaware :: N791JR KCNO-KCMA

N791JR :: KCNO-KCMA

FLIGHT INFORMATION

Flight Status: Arrived
Operator: Privately registered:
United States
More flights under this callsign
Pilot: Carson T. (20437)
Aircraft: CESSNA 172 SKYHAWK
(C172)
More flights by this aircraft type
Origin: KCNO Chino
United States
Destination: KCMA Camarillo
United States
More flights between these airports :: More routes between these airports
Route: PDZ V186 FIM
File this flight plan on PilotEdge
Remarks: TEC route ONTP14
Altitude:
(Current/Filed)
6,000ft
Speed:
(Current/Filed)
120kts
Departed: 09-Nov-18 12:23 PM
Arrived: 09-Nov-18 01:16 PM
Distance/Time
Traveled:
74nm/0:53
Distance/Time
To Go:
Arrived

Flight Plot

Page will automatically refresh every two minutes.


Map Options




Map Legend


Flown Route
Filed Route
Departure Airport
Arrival Airport
Navaid (VOR, NDB)
Fix

Horizontal Profiles

Position Reports

Time Latitude Longitude Heading Altitude Ground
Speed
09-Nov-18 11:58 33.978175 -117.637905 90 633ft 0kts
09-Nov-18 11:59 33.978175 -117.637905 90 633ft 0kts
09-Nov-18 12:00 33.978175 -117.637905 90 633ft 0kts
09-Nov-18 12:01 33.978175 -117.637905 90 633ft 0kts
09-Nov-18 12:02 33.978175 -117.637905 90 633ft 0kts
09-Nov-18 12:03 33.978175 -117.637905 90 633ft 0kts
09-Nov-18 12:04 33.978175 -117.637905 90 633ft 0kts
09-Nov-18 12:05 33.978175 -117.637905 90 633ft 0kts
09-Nov-18 12:06 33.978175 -117.637905 90 633ft 0kts
09-Nov-18 12:07 33.978175 -117.637905 90 633ft 0kts
09-Nov-18 12:08 33.978175 -117.637905 90 633ft 0kts
09-Nov-18 12:09 33.978175 -117.637905 90 633ft 0kts
09-Nov-18 12:10 33.978175 -117.637905 90 633ft 0kts
09-Nov-18 12:11 33.978175 -117.637905 90 633ft 0kts
09-Nov-18 12:12 33.978175 -117.637905 90 633ft 0kts
09-Nov-18 12:13 33.978175 -117.637905 90 633ft 0kts
09-Nov-18 12:14 33.978175 -117.637905 90 633ft 0kts
09-Nov-18 12:15 33.978175 -117.637905 90 633ft 0kts
09-Nov-18 12:16 33.978175 -117.637905 90 633ft 0kts
09-Nov-18 12:17 33.978175 -117.637905 90 633ft 0kts
09-Nov-18 12:18 33.978175 -117.637905 90 633ft 0kts
09-Nov-18 12:19 33.977740 -117.637752 177 632ft 0kts
09-Nov-18 12:20 33.976872 -117.639542 268 628ft 16kts
09-Nov-18 12:21 33.976843 -117.645712 266 620ft 13kts
09-Nov-18 12:22 33.974326 -117.646620 180 612ft 0kts
09-Nov-18 12:23 33.974326 -117.646620 180 612ft 0kts
09-Nov-18 12:24 33.974326 -117.646620 179 612ft 0kts
09-Nov-18 12:25 33.974317 -117.646620 176 612ft 0kts
09-Nov-18 12:26 33.973708 -117.634606 80 853ft 58kts
09-Nov-18 12:27 33.964718 -117.615611 118 1476ft 72kts
09-Nov-18 12:28 33.952077 -117.598714 114 2125ft 66kts
09-Nov-18 12:29 33.940977 -117.581729 108 2712ft 65kts
09-Nov-18 12:30 33.928841 -117.564548 116 3248ft 68kts
09-Nov-18 12:31 33.916166 -117.547358 116 3800ft 70kts
09-Nov-18 12:32 33.902652 -117.530312 128 4295ft 78kts
09-Nov-18 12:33 33.889164 -117.512865 105 4810ft 70kts
09-Nov-18 12:34 33.874602 -117.507723 257 5236ft 89kts
09-Nov-18 12:35 33.887199 -117.519267 32 5672ft 60kts
09-Nov-18 12:36 33.877634 -117.512239 244 6020ft 97kts
09-Nov-18 12:37 33.884576 -117.544756 291 6070ft 118kts
09-Nov-18 12:38 33.900088 -117.579391 315 6062ft 121kts
09-Nov-18 12:39 33.920660 -117.611771 314 6060ft 125kts
09-Nov-18 12:40 33.944216 -117.640841 325 6048ft 118kts
09-Nov-18 12:41 33.964447 -117.671101 293 6043ft 126kts
09-Nov-18 12:42 33.976181 -117.710909 297 6041ft 128kts
09-Nov-18 12:43 33.990302 -117.750054 299 6036ft 129kts
09-Nov-18 12:44 34.005402 -117.788805 299 6035ft 129kts
09-Nov-18 12:45 34.021201 -117.827287 299 6035ft 129kts
09-Nov-18 12:46 34.037226 -117.865239 297 6039ft 128kts
09-Nov-18 12:47 34.052459 -117.903332 297 6042ft 127kts
09-Nov-18 12:48 34.066360 -117.942169 295 6044ft 125kts
09-Nov-18 12:49 34.079560 -117.979800 295 6046ft 123kts
09-Nov-18 12:50 34.092035 -118.017545 293 6045ft 121kts
09-Nov-18 12:51 34.101774 -118.055429 280 6054ft 120kts
09-Nov-18 12:52 34.106549 -118.094717 281 6080ft 119kts
09-Nov-18 12:53 34.112435 -118.133898 297 6072ft 118kts
09-Nov-18 12:54 34.128531 -118.167754 302 6074ft 116kts
09-Nov-18 12:55 34.137097 -118.205788 288 6071ft 117kts
09-Nov-18 12:56 34.144382 -118.243959 281 6048ft 118kts
09-Nov-18 12:57 34.158639 -118.279724 294 6055ft 120kts
09-Nov-18 12:58 34.173422 -118.316078 293 6053ft 122kts
09-Nov-18 12:59 34.184043 -118.354912 285 6054ft 125kts
09-Nov-18 13:00 34.193671 -118.395613 284 6055ft 128kts
09-Nov-18 13:01 34.207807 -118.434784 297 6057ft 129kts
09-Nov-18 13:02 34.222107 -118.474222 297 6059ft 130kts
09-Nov-18 13:03 34.235265 -118.513825 298 6063ft 129kts
09-Nov-18 13:04 34.247421 -118.553939 298 6064ft 125kts
09-Nov-18 13:05 34.258615 -118.593040 279 6061ft 129kts
09-Nov-18 13:06 34.255901 -118.637410 271 6041ft 134kts
09-Nov-18 13:07 34.252169 -118.681141 269 6036ft 133kts
09-Nov-18 13:08 34.248301 -118.725844 268 5298ft 133kts
09-Nov-18 13:09 34.245106 -118.762721 268 4715ft 134kts
09-Nov-18 13:10 34.240497 -118.815099 266 3986ft 128kts
09-Nov-18 13:11 34.237080 -118.853654 267 4001ft 123kts
09-Nov-18 13:12 34.233794 -118.890785 267 3992ft 139kts
09-Nov-18 13:13 34.224423 -118.945445 260 3995ft 143kts
09-Nov-18 13:14 34.217513 -118.984051 260 3651ft 138kts
09-Nov-18 13:15 34.207910 -119.035293 260 2830ft 132kts
09-Nov-18 13:16 34.201739 -119.071141 263 2268ft 129kts
09-Nov-18 13:17 34.195497 -119.114000 264 1566ft 125kts
09-Nov-18 13:18 34.207771 -119.130095 22 1139ft 60kts
09-Nov-18 13:19 34.213465 -119.116212 75 651ft 40kts
09-Nov-18 13:20 34.213816 -119.101672 89 70ft 41kts
09-Nov-18 13:21 34.213369 -119.095307 193 65ft 20kts
09-Nov-18 13:22 34.212995 -119.095557 204 64ft 0kts
09-Nov-18 13:23 34.211018 -119.094421 126 64ft 11kts
09-Nov-18 13:24 34.210271 -119.094155 359 63ft 0kts
09-Nov-18 13:25 34.210271 -119.094155 359 63ft 0kts
09-Nov-18 13:26 34.210271 -119.094155 359 63ft 0kts
09-Nov-18 13:27 34.210271 -119.094155 359 63ft 0kts
09-Nov-18 13:28 34.210271 -119.094155 359 63ft 0kts
09-Nov-18 13:29 34.210271 -119.094155 359 63ft 0kts
09-Nov-18 13:30 34.210271 -119.094155 359 63ft 0kts
09-Nov-18 13:31 34.210271 -119.094155 359 63ft 0kts
09-Nov-18 13:32 34.210271 -119.094155 359 63ft 0kts
09-Nov-18 13:33 34.210271 -119.094155 359 63ft 0kts

Navigation Log

Ident Type
1. KCNO Airport
2. PDZ Navaid
3. TIFNI Fix
4. BAYJY Fix
5. ADAMM Fix
6. PIRRO Fix
7. ITSME Fix
8. ELMOO Fix
9. PURMS Fix
10. DARTS Fix
11. VNY Navaid
12. SESPE Fix
13. FIM Navaid
14. KCMA Airport